Observation data for Tatum on 10/15/2019      Previous  Date       Current Mesonet Observations  Soil Data  Daily Summary Page  Observations in Plain Language
KTAT 150500Z 23009KT 16/11 A3001 RMK A01 T01560108  RH  075%=      5-min Rain = 0
KTAT 150505Z 23009KT 16/11 A3001 RMK A01 T01570109  RH  076%=      5-min Rain = 0
KTAT 150510Z 23009KT 16/11 A3001 RMK A01 T01580110  RH  075%=      5-min Rain = 0
KTAT 150515Z 23009KT 16/11 A3001 RMK A01 T01570110  RH  076%=      5-min Rain = 0
KTAT 150520Z 23009KT 16/11 A3001 RMK A01 T01570111  RH  077%=      5-min Rain = 0
KTAT 150525Z 23009KT 16/11 A3001 RMK A01 T01580113  RH  077%=      5-min Rain = 0
KTAT 150530Z 23009KT 16/11 A3001 RMK A01 T01600114  RH  077%=      5-min Rain = 0
KTAT 150535Z 24009KT 16/12 A3001 RMK A01 T01620115  RH  076%=      5-min Rain = 0
KTAT 150540Z 24010KT 17/12 A3001 RMK A01 T01660116  RH  075%=      5-min Rain = 0
KTAT 150545Z 24010KT 17/12 A3001 RMK A01 T01680116  RH  074%=      5-min Rain = 0
KTAT 150550Z 24009KT 17/12 A3001 RMK A01 T01660115  RH  075%=      5-min Rain = 0
KTAT 150555Z 24009KT 17/12 A3001 RMK A01 T01650116  RH  075%=      5-min Rain = 0
KTAT 150600Z 23009KT 17/12 A3001 RMK A01 T01650116  RH  075%=      5-min Rain = 0
KTAT 150605Z 23009KT 17/12 A3001 RMK A01 T01650116  RH  076%=      5-min Rain = 0
KTAT 150610Z 22010KT 17/12 A3001 RMK A01 T01650116  RH  076%=      5-min Rain = 0
KTAT 150615Z 23010KT 16/12 A3001 RMK A01 T01640116  RH  076%=      5-min Rain = 0
KTAT 150620Z 23010KT 17/12 A3001 RMK A01 T01650117  RH  076%=      5-min Rain = 0
KTAT 150625Z 24010KT 17/12 A30 RMK A01 T01650117  RH  076%=      5-min Rain = 0
KTAT 150630Z 24010KT 17/12 A30 RMK A01 T01670117  RH  075%=      5-min Rain = 0
KTAT 150635Z 24010KT 17/12 A30 RMK A01 T01690118  RH  075%=      5-min Rain = 0
KTAT 150640Z 24009KT 17/12 A30 RMK A01 T01690118  RH  074%=      5-min Rain = 0
KTAT 150645Z 24009KT 17/12 A30 RMK A01 T01700119  RH  074%=      5-min Rain = 0
KTAT 150650Z 24010KT 17/12 A30 RMK A01 T01700119  RH  074%=      5-min Rain = 0
KTAT 150655Z 24010KT 17/12 A30 RMK A01 T01690119  RH  075%=      5-min Rain = 0
KTAT 150700Z 23010KT 17/12 A30 RMK A01 T01680119  RH  075%=      5-min Rain = 0
KTAT 150705Z 23009KT 17/12 A30 RMK A01 T01670119  RH  076%=      5-min Rain = 0
KTAT 150710Z 23009KT 17/12 A30 RMK A01 T01670119  RH  076%=      5-min Rain = 0
KTAT 150715Z 23009KT 17/12 A30 RMK A01 T01660119  RH  076%=      5-min Rain = 0
KTAT 150720Z 23009KT 17/12 A30 RMK A01 T01660119  RH  077%=      5-min Rain = 0
KTAT 150725Z 24009KT 17/12 A30 RMK A01 T01650119  RH  077%=      5-min Rain = 0
KTAT 150730Z 24009KT 17/12 A30 RMK A01 T01650119  RH  077%=      5-min Rain = 0
KTAT 150735Z 24010KT 17/12 A30 RMK A01 T01670119  RH  076%=      5-min Rain = 0
KTAT 150740Z 24009KT 17/12 A30 RMK A01 T01670119  RH  076%=      5-min Rain = 0
KTAT 150745Z 23009KT 17/12 A30 RMK A01 T01660119  RH  076%=      5-min Rain = 0
KTAT 150750Z 23008KT 17/12 A30 RMK A01 T01660119  RH  076%=      5-min Rain = 0
KTAT 150755Z 23008KT 16/12 A30 RMK A01 T01640118  RH  077%=      5-min Rain = 0
KTAT 150800Z 23008KT 16/12 A30 RMK A01 T01610118  RH  079%=      5-min Rain = 0
KTAT 150805Z 23008KT 16/12 A30 RMK A01 T01590118  RH  079%=      5-min Rain = 0
KTAT 150810Z 23009KT 16/12 A30 RMK A01 T01590118  RH  080%=      5-min Rain = 0
KTAT 150815Z 24009KT 16/12 A30 RMK A01 T01580118  RH  080%=      5-min Rain = 0
KTAT 150820Z 24009KT 16/12 A30 RMK A01 T01580118  RH  080%=      5-min Rain = 0
KTAT 150825Z 25008KT 16/12 A30 RMK A01 T01580118  RH  080%=      5-min Rain = 0
KTAT 150830Z 25008KT 16/12 A30 RMK A01 T01570117  RH  080%=      5-min Rain = 0
KTAT 150835Z 25009KT 16/12 A30 RMK A01 T01560117  RH  081%=      5-min Rain = 0
KTAT 150840Z 25008KT 16/12 A30 RMK A01 T01550117  RH  081%=      5-min Rain = 0
KTAT 150845Z 25009KT 15/12 A2999 RMK A01 T01540116  RH  081%=      5-min Rain = 0
KTAT 150850Z 26009KT 15/12 A2999 RMK A01 T01530116  RH  082%=      5-min Rain = 0
KTAT 150855Z 25009KT 15/12 A2999 RMK A01 T01520116  RH  082%=      5-min Rain = 0
KTAT 150900Z 25008KT 15/12 A2999 RMK A01 T01530116  RH  082%=      5-min Rain = 0
KTAT 150905Z 25008KT 15/12 A2999 RMK A01 T01530116  RH  081%=      5-min Rain = 0
KTAT 150910Z 26008KT 15/12 A2999 RMK A01 T01530116  RH  081%=      5-min Rain = 0
KTAT 150915Z 26008KT 15/12 A2999 RMK A01 T01530116  RH  081%=      5-min Rain = 0
KTAT 150920Z 26007KT 15/12 A2999 RMK A01 T01520116  RH  082%=      5-min Rain = 0
KTAT 150925Z 26007KT 15/12 A2999 RMK A01 T01520115  RH  082%=      5-min Rain = 0
KTAT 150930Z 26006KT 15/12 A2999 RMK A01 T01510115  RH  082%=      5-min Rain = 0
KTAT 150935Z 25006KT 15/11 A30 RMK A01 T01490114  RH  082%=      5-min Rain = 0
KTAT 150940Z 24005KT 15/11 A30 RMK A01 T01470113  RH  083%=      5-min Rain = 0
KTAT 150945Z 23006KT 14/11 A30 RMK A01 T01440112  RH  084%=      5-min Rain = 0
KTAT 150950Z 23006KT 14/11 A30 RMK A01 T01410111  RH  085%=      5-min Rain = 0
KTAT 150955Z 24006KT 14/11 A30 RMK A01 T01400112  RH  086%=      5-min Rain = 0
KTAT 151000Z 25006KT 14/11 A2999 RMK A01 T01400112  RH  086%=      5-min Rain = 0
KTAT 151005Z 25006KT 14/11 A30 RMK A01 T01390111  RH  086%=      5-min Rain = 0
KTAT 151010Z 24005KT 14/11 A30 RMK A01 T01370110  RH  087%=      5-min Rain = 0
KTAT 151015Z 23006KT 14/11 A30 RMK A01 T01350108  RH  087%=      5-min Rain = 0
KTAT 151020Z 24006KT 13/11 A30 RMK A01 T01320109  RH  088%=      5-min Rain = 0
KTAT 151025Z 25007KT 13/11 A30 RMK A01 T01330110  RH  089%=      5-min Rain = 0
KTAT 151030Z 25008KT 13/11 A30 RMK A01 T01340110  RH  089%=      5-min Rain = 0
KTAT 151035Z 25007KT 13/11 A30 RMK A01 T01340110  RH  088%=      5-min Rain = 0
KTAT 151040Z 25008KT 13/11 A30 RMK A01 T01340109  RH  088%=      5-min Rain = 0
KTAT 151045Z 25007KT 13/11 A30 RMK A01 T01340108  RH  088%=      5-min Rain = 0
KTAT 151050Z 25007KT 13/11 A30 RMK A01 T01330108  RH  087%=      5-min Rain = 0
KTAT 151055Z 25007KT 13/11 A30 RMK A01 T01310106  RH  088%=      5-min Rain = 0
KTAT 151100Z 26006KT 13/10 A30 RMK A01 T01290104  RH  088%=      5-min Rain = 0
KTAT 151105Z 26006KT 13/10 A30 RMK A01 T01250103  RH  089%=      5-min Rain = 0
KTAT 151110Z 26006KT 12/10 A3001 RMK A01 T01220101  RH  090%=      5-min Rain = 0
KTAT 151115Z 26006KT 12/10 A3001 RMK A01 T01200100  RH  090%=      5-min Rain = 0
KTAT 151120Z 27006KT 12/10 A3001 RMK A01 T01180099  RH  091%=      5-min Rain = 0
KTAT 151125Z 29008KT 12/10 A3001 RMK A01 T01190099  RH  091%=      5-min Rain = 0
KTAT 151130Z 29009KT 13/11 A3001 RMK A01 T01260106  RH  090%=      5-min Rain = 0
KTAT 151135Z 29009KT 13/11 A3002 RMK A01 T01330106  RH  087%=      5-min Rain = 0
KTAT 151140Z 29008KT 13/11 A3003 RMK A01 T01340105  RH  086%=      5-min Rain = 0
KTAT 151145Z 30008KT 13/10 A3003 RMK A01 T01330104  RH  086%=      5-min Rain = 0
KTAT 151150Z 30007KT 13/10 A3003 RMK A01 T01300103  RH  086%=      5-min Rain = 0
KTAT 151155Z 30008KT 13/10 A3003 RMK A01 T01270102  RH  087%=      5-min Rain = 0
KTAT 151200Z 30009KT 13/10 A3003 RMK A01 T01250101  RH  088%=      5-min Rain = 0
KTAT 151205Z 29009KT 12/10 A3004 RMK A01 T01240100  RH  088%=      5-min Rain = 0
KTAT 151210Z 28009KT 12/10 A3004 RMK A01 T01220100  RH  089%=      5-min Rain = 0
KTAT 151215Z 28008KT 12/10 A3004 RMK A01 T01220099  RH  089%=      5-min Rain = 0
KTAT 151220Z 28008KT 12/10 A3004 RMK A01 T01210099  RH  089%=      5-min Rain = 0
KTAT 151225Z 28008KT 12/10 A3004 RMK A01 T01210099  RH  089%=      5-min Rain = 0
KTAT 151230Z 28008KT 12/10 A3004 RMK A01 T01210098  RH  088%=      5-min Rain = 0
KTAT 151235Z 28008KT 12/10 A3004 RMK A01 T01200097  RH  088%=      5-min Rain = 0
KTAT 151240Z 27008KT 12/10 A3004 RMK A01 T01200097  RH  088%=      5-min Rain = 0
KTAT 151245Z 27008KT 12/10 A3004 RMK A01 T01210097  RH  088%=      5-min Rain = 0
KTAT 151250Z 27008KT 12/10 A3005 RMK A01 T01230097  RH  087%=      5-min Rain = 0
KTAT 151255Z 26009KT 13/10 A3005 RMK A01 T01250098  RH  086%=      5-min Rain = 0
KTAT 151300Z 26009KT 13/10 A3005 RMK A01 T01260098  RH  085%=      5-min Rain = 0
KTAT 151305Z 27009KT 13/10 A3005 RMK A01 T01280098  RH  085%=      5-min Rain = 0
KTAT 151310Z 27009KT 13/10 A3005 RMK A01 T01300099  RH  084%=      5-min Rain = 0
KTAT 151315Z 27008KT 13/10 A3005 RMK A01 T01330099  RH  083%=      5-min Rain = 0
KTAT 151320Z 27008KT 13/10 A3005 RMK A01 T01340099  RH  082%=      5-min Rain = 0
KTAT 151325Z 27009KT 14/10 A3005 RMK A01 T01360100  RH  082%=      5-min Rain = 0
KTAT 151330Z 27008KT 14/10 A3005 RMK A01 T01380100  RH  081%=      5-min Rain = 0
KTAT 151335Z 27008KT 14/10 A3005 RMK A01 T01400101  RH  080%=      5-min Rain = 0
KTAT 151340Z 27008KT 14/10 A3005 RMK A01 T01410102  RH  080%=      5-min Rain = 0
KTAT 151345Z 27008KT 14/10 A3005 RMK A01 T01420103  RH  080%=      5-min Rain = 0
KTAT 151350Z 27008KT 14/10 A3005 RMK A01 T01430103  RH  080%=      5-min Rain = 0
KTAT 151355Z 27007KT 15/10 A3006 RMK A01 T01450104  RH  079%=      5-min Rain = 0
KTAT 151400Z 26007KT 15/11 A3006 RMK A01 T01470105  RH  079%=      5-min Rain = 0
KTAT 151405Z 26008KT 15/11 A3006 RMK A01 T01490106  RH  078%=      5-min Rain = 0
KTAT 151410Z 27007KT 15/11 A3006 RMK A01 T01530107  RH  077%=      5-min Rain = 0
KTAT 151415Z 27007KT 16/11 A3007 RMK A01 T01560108  RH  076%=      5-min Rain = 0
KTAT 151420Z 27007KT 16/11 A3007 RMK A01 T01590108  RH  074%=      5-min Rain = 0
KTAT 151425Z 27006KT 16/11 A3007 RMK A01 T01610108  RH  073%=      5-min Rain = 0
KTAT 151430Z 28006KT 17/11 A3007 RMK A01 T01660109  RH  072%=      5-min Rain = 0
KTAT 151435Z 28007KT 17/11 A3007 RMK A01 T01700109  RH  069%=      5-min Rain = 0
KTAT 151440Z 29008KT 17/11 A3007 RMK A01 T01740110  RH  069%=      5-min Rain = 0
KTAT 151445Z 29009KT 18/11 A3007 RMK A01 T01770109  RH  067%=      5-min Rain = 0
KTAT 151450Z 29010KT 18/11 A3007 RMK A01 T01760109  RH  067%=      5-min Rain = 0
KTAT 151455Z 29010KT 18/11 A3008 RMK A01 T01750109  RH  068%=      5-min Rain = 0
KTAT 151500Z 29010KT 18/11 A3008 RMK A01 T01750110  RH  068%=      5-min Rain = 0
KTAT 151505Z 30010KT 18/11 A3008 RMK A01 T01770111  RH  068%=      5-min Rain = 0
KTAT 151510Z 30011KT 18/11 A3008 RMK A01 T01790111  RH  066%=      5-min Rain = 0
KTAT 151515Z 31011KT 18/11 A3008 RMK A01 T01820112  RH  065%=      5-min Rain = 0
KTAT 151520Z 31012KT 18/11 A3008 RMK A01 T01820110  RH  065%=      5-min Rain = 0
KTAT 151525Z 31011KT 19/11 A3008 RMK A01 T01850112  RH  065%=      5-min Rain = 0
KTAT 151530Z 30012KT 19/11 A3008 RMK A01 T01930113  RH  062%=      5-min Rain = 0
KTAT 151535Z 30013KT 20/11 A3008 RMK A01 T01960113  RH  061%=      5-min Rain = 0
KTAT 151540Z 30015KT 20/11 A3008 RMK A01 T02010111  RH  058%=      5-min Rain = 0
KTAT 151545Z 31014KT 21/11 A3008 RMK A01 T02060109  RH  056%=      5-min Rain = 0
KTAT 151550Z 30013KT 21/11 A3008 RMK A01 T02120107  RH  053%=      5-min Rain = 0
KTAT 151555Z 30013KT 22/10 A3008 RMK A01 T02160101  RH  050%=      5-min Rain = 0
KTAT 151600Z 30013KT 22/10 A3008 RMK A01 T02200099  RH  048%=      5-min Rain = 0
KTAT 151605Z 31013KT 22/10 A3008 RMK A01 T02230095  RH  045%=      5-min Rain = 0
KTAT 151610Z 30012KT 22/09 A3008 RMK A01 T02240093  RH  045%=      5-min Rain = 0
KTAT 151615Z 31012KT 23/10 A3008 RMK A01 T02260096  RH  045%=      5-min Rain = 0
KTAT 151620Z 31012KT 23/10 A3008 RMK A01 T02290096  RH  044%=      5-min Rain = 0
KTAT 151625Z 32013KT 23/09 A3008 RMK A01 T02300090  RH  042%=      5-min Rain = 0
KTAT 151630Z 32013G18KT 23/09 A3008 RMK A01 T02330085  RH  040%=      5-min Rain = 0
KTAT 151635Z 32014KT 24/08 A3008 RMK A01 T02370083  RH  038%=      5-min Rain = 0
KTAT 151640Z 33014G19KT 24/07 A3009 RMK A01 T02380073  RH  036%=      5-min Rain = 0
KTAT 151645Z 34014KT 24/06 A3009 RMK A01 T02400061  RH  032%=      5-min Rain = 0
KTAT 151650Z 34013KT 24/06 A3009 RMK A01 T02430055  RH  030%=      5-min Rain = 0
KTAT 151655Z 34013KT 25/05 A3009 RMK A01 T02450048  RH  029%=      5-min Rain = 0
KTAT 151700Z 36013G18KT 25/04 A3009 RMK A01 T02450043  RH  028%=      5-min Rain = 0
KTAT 151705Z 35014KT 25/04 A3009 RMK A01 T02460035  RH  026%=      5-min Rain = 0
KTAT 151710Z 00015KT 25/04 A301 RMK A01 T02460035  RH  026%=      5-min Rain = 0
KTAT 151715Z 00013KT 25/03 A3009 RMK A01 T02450032  RH  025%=      5-min Rain = 0
KTAT 151720Z 00013G18KT 25/03 A3009 RMK A01 T02470027  RH  024%=      5-min Rain = 0
KTAT 151725Z 00015KT 25/01 A3009 RMK A01 T02510008  RH  021%=      5-min Rain = 0
KTAT 151730Z 01015G20KT 25/M00 A3009 RMK A01 T02501002  RH  019%=      5-min Rain = 0
KTAT 151735Z 01013G19KT 25/00 A3009 RMK A01 T02490001  RH  020%=      5-min Rain = 0
KTAT 151740Z 02012KT 25/01 A3009 RMK A01 T02510005  RH  020%=      5-min Rain = 0
KTAT 151745Z 02013G18KT 25/M00 A3009 RMK A01 T02501003  RH  019%=      5-min Rain = 0
KTAT 151750Z 02014KT 25/M01 A3009 RMK A01 T02501009  RH  018%=      5-min Rain = 0
KTAT 151755Z 01013G18KT 25/M02 A3009 RMK A01 T02481017  RH  017%=      5-min Rain = 0
KTAT 151800Z 02012G18KT 25/M02 A3009 RMK A01 T02481018  RH  017%=      5-min Rain = 0
KTAT 151805Z 03014G19KT 25/M01 A3009 RMK A01 T02491006  RH  019%=      5-min Rain = 0
KTAT 151810Z 02013KT 25/M01 A3009 RMK A01 T02501005  RH  019%=      5-min Rain = 0
KTAT 151815Z 02015G20KT 25/M02 A3009 RMK A01 T02491016  RH  017%=      5-min Rain = 0
KTAT 151820Z 02015KT 25/M01 A3009 RMK A01 T02481011  RH  018%=      5-min Rain = 0
KTAT 151825Z 00015G21KT 25/M01 A3009 RMK A01 T02471014  RH  018%=      5-min Rain = 0
KTAT 151830Z 02016G21KT 24/M03 A3008 RMK A01 T02441026  RH  017%=      5-min Rain = 0
KTAT 151835Z 01014KT 25/M02 A3008 RMK A01 T02461021  RH  017%=      5-min Rain = 0
KTAT 151840Z 00014KT 25/M02 A3008 RMK A01 T02471024  RH  017%=      5-min Rain = 0
KTAT 151845Z 02013G18KT 25/M02 A3008 RMK A01 T02451022  RH  017%=      5-min Rain = 0
KTAT 151850Z 00013G18KT 25/M02 A3008 RMK A01 T02461023  RH  017%=      5-min Rain = 0
KTAT 151855Z 00013G18KT 25/M02 A3008 RMK A01 T02461018  RH  017%=      5-min Rain = 0
KTAT 151900Z 02013KT 25/M02 A3008 RMK A01 T02461018  RH  018%=      5-min Rain = 0
KTAT 151905Z 02012G17KT 24/M02 A3008 RMK A01 T02441016  RH  018%=      5-min Rain = 0
KTAT 151910Z 01012KT 25/M02 A3008 RMK A01 T02461018  RH  018%=      5-min Rain = 0
KTAT 151915Z 01011G17KT 25/M01 A3008 RMK A01 T02481010  RH  018%=      5-min Rain = 0
KTAT 151920Z 01012KT 25/M01 A3008 RMK A01 T02471014  RH  018%=      5-min Rain = 0
KTAT 151925Z 01012KT 25/M02 A3008 RMK A01 T02461018  RH  018%=      5-min Rain = 0
KTAT 151930Z 01010KT 25/M01 A3008 RMK A01 T02451012  RH  018%=      5-min Rain = 0
KTAT 151935Z 01012G17KT 25/M01 A3008 RMK A01 T02471012  RH  018%=      5-min Rain = 0
KTAT 151940Z 02013G18KT 25/M01 A3008 RMK A01 T02451012  RH  018%=      5-min Rain = 0
KTAT 151945Z 02010G15KT 24/M01 A3008 RMK A01 T02441009  RH  019%=      5-min Rain = 0
KTAT 151950Z 01011KT 24/M01 A3008 RMK A01 T02441012  RH  019%=      5-min Rain = 0
KTAT 151955Z 02012G19KT 25/M01 A3007 RMK A01 T02451006  RH  019%=      5-min Rain = 0
KTAT 152000Z 01014G19KT 24/M00 A3007 RMK A01 T02431004  RH  020%=      5-min Rain = 0
KTAT 152005Z 02012KT 24/M01 A3008 RMK A01 T02431008  RH  019%=      5-min Rain = 0
KTAT 152010Z 01010G16KT 24/M00 A3008 RMK A01 T02431004  RH  020%=      5-min Rain = 0
KTAT 152015Z 01009KT 25/M00 A3008 RMK A01 T02461001  RH  020%=      5-min Rain = 0
KTAT 152020Z 02010KT 25/00 A3008 RMK A01 T02450004  RH  021%=      5-min Rain = 0
KTAT 152025Z 03011KT 25/00 A3008 RMK A01 T02460003  RH  020%=      5-min Rain = 0
KTAT 152030Z 03011KT 25/00 A3007 RMK A01 T02450000  RH  020%=      5-min Rain = 0
KTAT 152035Z 02011G18KT 24/M00 A3007 RMK A01 T02441001  RH  020%=      5-min Rain = 0
KTAT 152040Z 04012G17KT 24/00 A3007 RMK A01 T02440002  RH  020%=      5-min Rain = 0
KTAT 152045Z 03013KT 24/00 A3007 RMK A01 T02420003  RH  021%=      5-min Rain = 0
KTAT 152050Z 02012KT 24/01 A3007 RMK A01 T02420006  RH  021%=      5-min Rain = 0
KTAT 152055Z 02011KT 24/00 A3008 RMK A01 T02430003  RH  021%=      5-min Rain = 0
KTAT 152100Z 03009KT 24/00 A3007 RMK A01 T02430004  RH  021%=      5-min Rain = 0
KTAT 152105Z 02012KT 24/00 A3007 RMK A01 T02430002  RH  021%=      5-min Rain = 0
KTAT 152110Z 03010G16KT 24/00 A3007 RMK A01 T02410001  RH  021%=      5-min Rain = 0
KTAT 152115Z 02012KT 24/M00 A3007 RMK A01 T02401001  RH  021%=      5-min Rain = 0
KTAT 152120Z 02011KT 24/00 A3007 RMK A01 T02390003  RH  021%=      5-min Rain = 0
KTAT 152125Z 03012KT 24/00 A3007 RMK A01 T02390003  RH  021%=      5-min Rain = 0
KTAT 152130Z 03012KT 24/00 A3008 RMK A01 T02380003  RH  021%=      5-min Rain = 0
KTAT 152135Z 01011G16KT 24/01 A3008 RMK A01 T02370005  RH  022%=      5-min Rain = 0
KTAT 152140Z 03010KT 24/01 A3008 RMK A01 T02370005  RH  022%=      5-min Rain = 0
KTAT 152145Z 02012KT 24/00 A3008 RMK A01 T02350001  RH  022%=      5-min Rain = 0
KTAT 152150Z 03011G16KT 24/00 A3008 RMK A01 T02350003  RH  022%=      5-min Rain = 0
KTAT 152155Z 03011KT 24/00 A3008 RMK A01 T02360004  RH  022%=      5-min Rain = 0
KTAT 152200Z 03012KT 24/01 A3008 RMK A01 T02350005  RH  022%=      5-min Rain = 0
KTAT 152205Z 03011KT 23/01 A3009 RMK A01 T02340007  RH  023%=      5-min Rain = 0
KTAT 152210Z 02011KT 23/00 A3009 RMK A01 T02320003  RH  022%=      5-min Rain = 0
KTAT 152215Z 03012KT 23/00 A3009 RMK A01 T02310004  RH  022%=      5-min Rain = 0
KTAT 152220Z 04011KT 23/01 A3009 RMK A01 T02320009  RH  023%=      5-min Rain = 0
KTAT 152225Z 03011G17KT 23/01 A3009 RMK A01 T02320008  RH  023%=      5-min Rain = 0
KTAT 152230Z 04011KT 23/01 A3009 RMK A01 T02290005  RH  023%=      5-min Rain = 0
KTAT 152235Z 03010G15KT 23/01 A3009 RMK A01 T02280006  RH  023%=      5-min Rain = 0
KTAT 152240Z 02011KT 23/01 A3009 RMK A01 T02270008  RH  024%=      5-min Rain = 0
KTAT 152245Z 03012KT 23/00 A3009 RMK A01 T02250004  RH  023%=      5-min Rain = 0
KTAT 152250Z 03011KT 23/01 A3009 RMK A01 T02250005  RH  024%=      5-min Rain = 0
KTAT 152255Z 03013KT 22/01 A3009 RMK A01 T02220005  RH  024%=      5-min Rain = 0
KTAT 152300Z 04013KT 22/00 A301 RMK A01 T02200004  RH  024%=      5-min Rain = 0
KTAT 152305Z 03014KT 22/00 A301 RMK A01 T02180003  RH  024%=      5-min Rain = 0
KTAT 152310Z 03013KT 22/00 A301 RMK A01 T02160003  RH  025%=      5-min Rain = 0
KTAT 152315Z 03012KT 21/00 A301 RMK A01 T02140004  RH  025%=      5-min Rain = 0
KTAT 152320Z 03012KT 21/01 A301 RMK A01 T02130005  RH  025%=      5-min Rain = 0
KTAT 152325Z 04013KT 21/00 A3011 RMK A01 T02110002  RH  025%=      5-min Rain = 0
KTAT 152330Z 03012KT 21/00 A3011 RMK A01 T02080002  RH  026%=      5-min Rain = 0
KTAT 152335Z 03011G16KT 21/00 A3011 RMK A01 T02060003  RH  026%=      5-min Rain = 0
KTAT 152340Z 03011KT 20/00 A3011 RMK A01 T02040002  RH  026%=      5-min Rain = 0
KTAT 152345Z 03011KT 20/00 A3011 RMK A01 T02000004  RH  027%=      5-min Rain = 0
KTAT 152350Z 03012KT 20/00 A3011 RMK A01 T01980000  RH  027%=      5-min Rain = 0
KTAT 152355Z 03011KT 20/00 A3012 RMK A01 T01950001  RH  028%=      5-min Rain = 0
KTAT 160000Z 03011KT 19/00 A3012 RMK A01 T01920002  RH  028%=      5-min Rain = 0
KTAT 160005Z 03010KT 19/00 A3012 RMK A01 T01880002  RH  029%=      5-min Rain = 0
KTAT 160010Z 04010KT 19/00 A3012 RMK A01 T01850001  RH  029%=      5-min Rain = 0
KTAT 160015Z 04011KT 18/M00 A3013 RMK A01 T01821001  RH  029%=      5-min Rain = 0
KTAT 160020Z 04011KT 18/M00 A3013 RMK A01 T01801003  RH  029%=      5-min Rain = 0
KTAT 160025Z 04011KT 18/M00 A3013 RMK A01 T01771003  RH  030%=      5-min Rain = 0
KTAT 160030Z 04009KT 17/M00 A3014 RMK A01 T01741001  RH  031%=      5-min Rain = 0
KTAT 160035Z 04009KT 17/M00 A3014 RMK A01 T01701001  RH  032%=      5-min Rain = 0
KTAT 160040Z 04009KT 17/00 A3014 RMK A01 T01670000  RH  033%=      5-min Rain = 0
KTAT 160045Z 04009KT 17/00 A3015 RMK A01 T016600-0  RH  033%=      5-min Rain = 0
KTAT 160050Z 04010KT 16/M00 A3015 RMK A01 T01641001  RH  033%=      5-min Rain = 0
KTAT 160055Z 04010KT 16/M00 A3015 RMK A01 T01631001  RH  033%=      5-min Rain = 0
KTAT 160100Z 04010KT 16/M00 A3015 RMK A01 T01611001  RH  033%=      5-min Rain = 0
KTAT 160105Z 05009KT 16/M00 A3015 RMK A01 T01591001  RH  034%=      5-min Rain = 0
KTAT 160110Z 05009KT 16/M00 A3015 RMK A01 T01571001  RH  034%=      5-min Rain = 0
KTAT 160115Z 04009KT 16/M00 A3016 RMK A01 T01551001  RH  035%=      5-min Rain = 0
KTAT 160120Z 04009KT 15/00 A3016 RMK A01 T01520000  RH  036%=      5-min Rain = 0
KTAT 160125Z 04009KT 15/00 A3016 RMK A01 T01490003  RH  037%=      5-min Rain = 0
KTAT 160130Z 04009KT 15/01 A3016 RMK A01 T01470005  RH  038%=      5-min Rain = 0
KTAT 160135Z 04010KT 15/00 A3016 RMK A01 T01450004  RH  039%=      5-min Rain = 0
KTAT 160140Z 05010KT 15/00 A3016 RMK A01 T01460002  RH  038%=      5-min Rain = 0
KTAT 160145Z 04010KT 15/00 A3017 RMK A01 T01460001  RH  038%=      5-min Rain = 0
KTAT 160150Z 05011KT 15/00 A3017 RMK A01 T01450001  RH  038%=      5-min Rain = 0
KTAT 160155Z 04011KT 14/00 A3017 RMK A01 T01440000  RH  038%=      5-min Rain = 0
KTAT 160200Z 04012KT 14/M00 A3017 RMK A01 T01441002  RH  037%=      5-min Rain = 0
KTAT 160205Z 05012KT 14/M00 A3017 RMK A01 T01431003  RH  037%=      5-min Rain = 0
KTAT 160210Z 04012KT 14/M01 A3017 RMK A01 T01431006  RH  036%=      5-min Rain = 0
KTAT 160215Z 04012KT 14/M01 A3018 RMK A01 T01421007  RH  036%=      5-min Rain = 0
KTAT 160220Z 03012KT 14/M01 A3018 RMK A01 T01411007  RH  037%=      5-min Rain = 0
KTAT 160225Z 04012KT 14/M00 A3018 RMK A01 T01381003  RH  038%=      5-min Rain = 0
KTAT 160230Z 04013KT 14/M01 A3018 RMK A01 T01381006  RH  038%=      5-min Rain = 0
KTAT 160235Z 04012KT 14/M01 A3018 RMK A01 T01381005  RH  038%=      5-min Rain = 0
KTAT 160240Z 04012KT 14/M00 A3019 RMK A01 T01351004  RH  039%=      5-min Rain = 0
KTAT 160245Z 03011G16KT 13/M00 A3019 RMK A01 T01331003  RH  040%=      5-min Rain = 0
KTAT 160250Z 03011KT 13/M00 A3019 RMK A01 T01311001  RH  041%=      5-min Rain = 0
KTAT 160255Z 03011KT 13/00 A302 RMK A01 T012800-0  RH  042%=      5-min Rain = 0
KTAT 160300Z 03011KT 13/00 A302 RMK A01 T012700-0  RH  042%=      5-min Rain = 0
KTAT 160305Z 03011KT 13/M00 A302 RMK A01 T01271001  RH  042%=      5-min Rain = 0
KTAT 160310Z 03011KT 13/M00 A3021 RMK A01 T01261001  RH  042%=      5-min Rain = 0
KTAT 160315Z 03011KT 13/M00 A3021 RMK A01 T01251001  RH  042%=      5-min Rain = 0
KTAT 160320Z 03011KT 13/M00 A3022 RMK A01 T01251001  RH  042%=      5-min Rain = 0
KTAT 160325Z 03010KT 12/M00 A3022 RMK A01 T01231001  RH  043%=      5-min Rain = 0
KTAT 160330Z 03010KT 12/00 A3022 RMK A01 T01220000  RH  044%=      5-min Rain = 0
KTAT 160335Z 03010KT 12/00 A3023 RMK A01 T01200001  RH  044%=      5-min Rain = 0
KTAT 160340Z 03011KT 12/00 A3023 RMK A01 T01200000  RH  044%=      5-min Rain = 0
KTAT 160345Z 03011KT 12/00 A3023 RMK A01 T011900-0  RH  044%=      5-min Rain = 0
KTAT 160350Z 03010KT 12/00 A3023 RMK A01 T011800-0  RH  045%=      5-min Rain = 0
KTAT 160355Z 03011KT 12/00 A3023 RMK A01 T011700-0  RH  045%=      5-min Rain = 0
KTAT 160400Z 03011KT 12/00 A3023 RMK A01 T011600-0  RH  045%=      5-min Rain = 0
KTAT 160405Z 03011KT 12/00 A3024 RMK A01 T011600-0  RH  045%=      5-min Rain = 0
KTAT 160410Z 03010KT 12/00 A3024 RMK A01 T011500-0  RH  045%=      5-min Rain = 0
KTAT 160415Z 03010KT 11/00 A3024 RMK A01 T01130001  RH  046%=      5-min Rain = 0
KTAT 160420Z 03010KT 11/00 A3024 RMK A01 T01110001  RH  047%=      5-min Rain = 0
KTAT 160425Z 03010KT 11/00 A3024 RMK A01 T01110001  RH  047%=      5-min Rain = 0
KTAT 160430Z 04009KT 11/00 A3024 RMK A01 T01100001  RH  047%=      5-min Rain = 0
KTAT 160435Z 04009KT 11/00 A3025 RMK A01 T01090000  RH  048%=      5-min Rain = 0
KTAT 160440Z 04009KT 11/00 A3025 RMK A01 T01080001  RH  048%=      5-min Rain = 0
KTAT 160445Z 04009KT 11/00 A3025 RMK A01 T01060001  RH  049%=      5-min Rain = 0
KTAT 160450Z 03008KT 11/00 A3025 RMK A01 T01060001  RH  049%=      5-min Rain = 0
KTAT 160455Z 04007KT 10/00 A3025 RMK A01 T01030002  RH  050%=      5-min Rain = 0

Page generated in 0.0161 seconds.